createdAt,value
2022-09-01T00:00:49.134Z,17.80
2022-09-01T00:05:49.918Z,17.70
2022-09-01T00:10:48.339Z,17.70
2022-09-01T00:15:48.311Z,17.70
2022-09-01T00:20:46.672Z,17.60
2022-09-01T00:25:44.999Z,17.60
2022-09-01T00:30:43.384Z,17.60
2022-09-01T00:35:43.084Z,17.60
2022-09-01T00:40:41.501Z,17.50
2022-09-01T00:45:39.780Z,17.50
2022-09-01T00:50:39.012Z,17.50
2022-09-01T00:55:39.481Z,17.40
2022-09-01T01:00:41.954Z,17.40
2022-09-01T01:05:48.211Z,17.40
2022-09-01T01:10:47.798Z,17.30
2022-09-01T01:15:46.419Z,17.30
2022-09-01T01:21:02.356Z,17.30
2022-09-01T01:26:02.339Z,17.20
2022-09-01T01:31:03.115Z,17.20
2022-09-01T01:36:01.916Z,17.20
2022-09-01T01:41:02.514Z,17.10
2022-09-01T01:46:02.910Z,17.10
2022-09-01T01:51:07.614Z,17.00
2022-09-01T01:56:09.032Z,17.00
2022-09-01T02:01:10.861Z,16.90
2022-09-01T02:06:11.936Z,16.90
2022-09-01T02:11:13.595Z,16.80
2022-09-01T02:16:13.437Z,16.90
2022-09-01T02:21:19.620Z,16.90
2022-09-01T02:26:23.725Z,16.90
2022-09-01T02:31:23.077Z,16.80
2022-09-01T02:36:22.008Z,16.80
2022-09-01T02:41:23.783Z,16.80
2022-09-01T02:46:24.334Z,16.80
2022-09-01T02:51:26.221Z,16.70
2022-09-01T02:56:27.466Z,16.70
2022-09-01T03:01:30.209Z,16.60
2022-09-01T03:06:31.501Z,16.50
2022-09-01T03:11:34.576Z,16.50
2022-09-01T03:16:33.188Z,16.40
2022-09-01T03:21:32.654Z,16.30
2022-09-01T03:26:32.904Z,16.30
2022-09-01T03:31:32.047Z,16.20
2022-09-01T03:36:34.416Z,16.10
2022-09-01T03:41:37.007Z,16.10
2022-09-01T03:46:37.177Z,16.10
2022-09-01T03:51:38.967Z,16.10
2022-09-01T03:56:41.322Z,16.00
2022-09-01T04:01:44.654Z,15.90
2022-09-01T04:06:45.507Z,15.90
2022-09-01T04:11:47.076Z,15.90
2022-09-01T04:17:06.065Z,15.90
2022-09-01T04:22:06.013Z,15.90
2022-09-01T04:27:11.603Z,15.80
2022-09-01T04:32:12.813Z,15.80
2022-09-01T04:37:18.212Z,15.70
2022-09-01T04:42:19.066Z,15.70
2022-09-01T04:47:19.820Z,15.60
2022-09-01T04:52:18.395Z,15.60
2022-09-01T04:57:18.191Z,15.60
2022-09-01T05:02:17.915Z,15.60
2022-09-01T05:07:17.348Z,15.60
2022-09-01T05:12:23.003Z,15.50
2022-09-01T05:17:21.607Z,15.60
2022-09-01T05:22:22.265Z,15.60
2022-09-01T05:27:32.476Z,15.60
2022-09-01T05:32:32.361Z,15.60
2022-09-01T05:37:30.648Z,15.60
2022-09-01T05:42:29.160Z,15.60
2022-09-01T05:47:29.995Z,15.60
2022-09-01T05:52:31.658Z,15.70
2022-09-01T05:57:34.612Z,15.80
2022-09-01T06:02:37.807Z,15.80
2022-09-01T06:07:38.114Z,15.90
2022-09-01T06:12:37.476Z,16.10
2022-09-01T06:17:37.945Z,16.20
2022-09-01T06:22:36.768Z,16.30
2022-09-01T06:27:38.799Z,16.40
2022-09-01T06:32:39.025Z,16.60
2022-09-01T06:37:38.243Z,16.80
2022-09-01T06:42:37.872Z,16.90
2022-09-01T06:47:38.009Z,17.10
2022-09-01T06:58:12.975Z,17.50
2022-09-01T07:03:18.101Z,17.60
2022-09-01T07:09:19.005Z,17.80
2022-09-01T07:14:18.967Z,18.00
2022-09-01T07:19:18.891Z,18.30
2022-09-01T07:24:26.614Z,18.60
2022-09-01T07:29:48.057Z,19.00
2022-09-01T07:34:49.150Z,19.30
2022-09-01T07:39:49.879Z,19.60
2022-09-01T07:45:26.150Z,19.90
2022-09-01T07:50:41.354Z,20.20
2022-09-01T07:55:51.197Z,20.50
2022-09-01T08:00:51.306Z,20.90
2022-09-01T08:05:55.697Z,21.10
2022-09-01T08:10:55.210Z,21.20
2022-09-01T08:16:08.564Z,21.30
2022-09-01T08:21:09.870Z,21.50
2022-09-01T08:26:28.080Z,21.60
2022-09-01T08:31:30.691Z,21.90
2022-09-01T08:36:32.582Z,22.10
2022-09-01T08:41:59.334Z,22.30
2022-09-01T08:47:03.576Z,22.70
2022-09-01T08:52:12.531Z,22.90
2022-09-01T08:57:15.863Z,23.10
2022-09-01T09:02:47.902Z,23.30
2022-09-01T09:08:07.154Z,23.40
2022-09-01T09:13:13.390Z,23.60
2022-09-01T09:18:38.297Z,23.80
2022-09-01T09:23:47.906Z,24.10
2022-09-01T09:28:48.015Z,24.30
2022-09-01T09:33:51.761Z,24.30
2022-09-01T09:39:10.133Z,24.40
2022-09-01T09:44:23.507Z,24.70
2022-09-01T09:49:34.977Z,24.80
2022-09-01T09:54:38.906Z,24.80
2022-09-01T09:59:57.542Z,25.00
2022-09-01T10:04:58.939Z,25.10
2022-09-01T10:10:01.577Z,25.30
2022-09-01T10:15:11.872Z,25.60
2022-09-01T10:20:17.046Z,25.80
2022-09-01T10:25:20.690Z,25.70
2022-09-01T10:30:21.002Z,25.90
2022-09-01T10:35:24.452Z,25.90
2022-09-01T10:40:43.831Z,26.10
2022-09-01T10:45:44.030Z,26.30
2022-09-01T10:50:42.314Z,26.30
2022-09-01T10:55:46.001Z,26.40
2022-09-01T11:06:12.274Z,26.60
2022-09-01T11:11:24.391Z,26.70
2022-09-01T11:16:50.839Z,26.90
2022-09-01T11:21:49.701Z,27.10
2022-09-01T11:26:51.240Z,27.20
2022-09-01T11:31:49.848Z,27.40
2022-09-01T11:36:54.529Z,27.40
2022-09-01T11:42:04.520Z,27.30
2022-09-01T11:47:09.483Z,27.00
2022-09-01T11:52:17.677Z,26.80
2022-09-01T11:57:24.740Z,26.60
2022-09-01T12:02:27.059Z,26.40
2022-09-01T12:07:42.571Z,26.30
2022-09-01T12:12:42.191Z,26.10
2022-09-01T12:17:40.474Z,26.00
2022-09-01T12:22:38.716Z,25.90
2022-09-01T12:27:37.052Z,25.80
2022-09-01T12:32:36.730Z,25.70
2022-09-01T12:37:35.068Z,25.70
2022-09-01T12:42:41.578Z,26.00
2022-09-01T12:47:50.418Z,26.20
2022-09-01T12:52:52.465Z,26.50
2022-09-01T12:57:53.415Z,26.60
2022-09-01T13:03:08.252Z,26.60
2022-09-01T13:08:09.349Z,26.70
2022-09-01T13:13:08.676Z,26.80
2022-09-01T13:18:08.345Z,26.90
2022-09-01T13:23:06.840Z,26.90
2022-09-01T13:28:06.666Z,26.50
2022-09-01T13:33:21.001Z,26.30
2022-09-01T13:38:24.058Z,26.10
2022-09-01T13:43:27.166Z,25.70
2022-09-01T13:49:02.168Z,25.70
2022-09-01T13:53:45.024Z,25.60
2022-09-01T13:58:43.265Z,25.50
2022-09-01T14:03:47.868Z,25.50
2022-09-01T14:08:51.150Z,25.50
2022-09-01T14:13:49.630Z,25.60
2022-09-01T14:18:47.827Z,25.50
2022-09-01T14:23:46.769Z,25.30
2022-09-01T14:28:48.616Z,25.30
2022-09-01T14:33:47.260Z,25.30
2022-09-01T14:38:45.478Z,25.30
2022-09-01T14:43:43.994Z,25.30
2022-09-01T14:48:43.694Z,25.10
2022-09-01T14:53:41.972Z,24.90
2022-09-01T14:58:42.251Z,24.80
2022-09-01T15:03:40.505Z,24.40
2022-09-01T15:08:40.276Z,24.30
2022-09-01T15:13:39.071Z,24.30
2022-09-01T15:18:37.374Z,24.20
2022-09-01T15:23:36.072Z,23.90
2022-09-01T15:28:35.715Z,23.70
2022-09-01T15:33:34.075Z,23.60
2022-09-01T15:38:34.597Z,23.50
2022-09-01T15:43:35.755Z,23.40
2022-09-01T15:48:34.948Z,23.60
2022-09-01T15:53:33.361Z,23.40
2022-09-01T15:58:44.491Z,23.50
2022-09-01T16:03:50.545Z,23.50
2022-09-01T16:08:48.897Z,23.30
2022-09-01T16:13:47.530Z,23.30
2022-09-01T16:18:54.169Z,23.40
2022-09-01T16:23:53.633Z,23.40
2022-09-01T16:28:55.331Z,23.50
2022-09-01T16:34:00.281Z,23.40
2022-09-01T16:39:08.412Z,23.20
2022-09-01T16:44:20.573Z,23.30
2022-09-01T16:49:28.079Z,23.30
2022-09-01T16:54:33.024Z,23.20
2022-09-01T16:59:37.796Z,23.20
2022-09-01T17:04:43.222Z,23.20
2022-09-01T17:09:43.990Z,23.10
2022-09-01T17:14:49.477Z,23.00
2022-09-01T17:19:52.675Z,23.00
2022-09-01T17:24:55.207Z,22.90
2022-09-01T17:29:57.158Z,22.80
2022-09-01T17:35:07.865Z,22.80
2022-09-01T17:40:15.340Z,22.80
2022-09-01T17:45:25.131Z,22.70
2022-09-01T17:50:32.259Z,22.60
2022-09-01T17:55:43.080Z,22.60
2022-09-01T18:00:47.404Z,22.50
2022-09-01T18:05:54.072Z,22.40
2022-09-01T18:10:57.509Z,22.30
2022-09-01T18:16:00.452Z,22.10
2022-09-01T18:21:05.738Z,22.00
2022-09-01T18:26:10.830Z,21.50
2022-09-01T18:31:24.109Z,21.20
2022-09-01T18:36:34.189Z,21.00
2022-09-01T18:41:41.121Z,20.80
2022-09-01T18:46:49.524Z,20.70
2022-09-01T18:52:05.437Z,20.60
2022-09-01T18:57:05.995Z,20.60
2022-09-01T19:02:19.618Z,20.50
2022-09-01T19:07:26.215Z,20.40
2022-09-01T19:12:31.289Z,20.30
2022-09-01T19:17:50.089Z,20.10
2022-09-01T19:22:56.323Z,20.10
2022-09-01T19:28:02.355Z,19.90
2022-09-01T19:33:03.562Z,19.70
2022-09-01T19:38:06.122Z,19.70
2022-09-01T19:43:07.721Z,19.60
2022-09-01T19:48:15.677Z,19.50
2022-09-01T19:53:29.312Z,19.50
2022-09-01T19:58:35.896Z,19.50
2022-09-01T20:03:37.708Z,19.70
2022-09-01T20:08:42.948Z,19.70
2022-09-01T20:14:08.039Z,19.60
2022-09-01T20:19:11.542Z,19.60
2022-09-01T20:24:18.967Z,19.60
2022-09-01T20:29:23.801Z,19.50
2022-09-01T20:34:30.491Z,19.50
2022-09-01T20:39:57.277Z,19.50
2022-09-01T20:44:59.522Z,19.40
2022-09-01T20:50:00.189Z,19.30
2022-09-01T20:55:05.661Z,19.30
2022-09-01T21:00:10.583Z,19.30
2022-09-01T21:05:22.506Z,19.30
2022-09-01T21:10:29.115Z,19.40
2022-09-01T21:15:37.771Z,19.30
2022-09-01T21:20:45.768Z,19.30
2022-09-01T21:25:46.086Z,19.20
2022-09-01T21:30:44.543Z,19.20
2022-09-01T21:35:43.004Z,19.10
2022-09-01T21:40:42.552Z,19.00
2022-09-01T21:45:42.507Z,19.00
2022-09-01T21:50:41.066Z,18.90
2022-09-01T21:55:39.454Z,18.90
2022-09-01T22:00:40.185Z,18.80
2022-09-01T22:05:42.416Z,18.80
2022-09-01T22:10:44.763Z,18.70
2022-09-01T22:15:45.063Z,18.60
2022-09-01T22:20:45.631Z,18.60
2022-09-01T22:25:46.420Z,18.50
2022-09-01T22:30:46.720Z,18.40
2022-09-01T22:35:49.102Z,18.40
2022-09-01T22:40:48.895Z,18.30
2022-09-01T22:45:48.190Z,18.20
2022-09-01T22:50:49.135Z,18.20
2022-09-01T22:55:52.269Z,18.10
2022-09-01T23:00:52.533Z,18.00
2022-09-01T23:06:02.467Z,17.90
2022-09-01T23:11:01.064Z,17.90
2022-09-01T23:16:00.519Z,17.80
2022-09-01T23:21:01.183Z,17.70
2022-09-01T23:26:01.359Z,17.70
2022-09-01T23:30:59.862Z,17.70
2022-09-01T23:36:00.068Z,17.60
2022-09-01T23:40:58.811Z,17.50
2022-09-01T23:45:58.103Z,17.50
2022-09-01T23:50:59.944Z,17.50
2022-09-01T23:56:00.640Z,17.50
